sensor_id;sensor_type;location;lat;lon;timestamp;pressure;altitude;pressure_sealevel;temperature;humidity
12799;BME280;19250;42.646;26.980;2022-07-21T00:00:21;99015.00;;;21.89;62.77
12799;BME280;19250;42.646;26.980;2022-07-21T00:02:49;99006.41;;;21.92;62.37
12799;BME280;19250;42.646;26.980;2022-07-21T00:05:16;99008.44;;;22.08;61.40
12799;BME280;19250;42.646;26.980;2022-07-21T00:07:44;98807.44;;;20.91;61.43
12799;BME280;19250;42.646;26.980;2022-07-21T00:10:14;99004.16;;;22.01;62.55
12799;BME280;19250;42.646;26.980;2022-07-21T00:12:41;98960.34;;;21.97;62.11
12799;BME280;19250;42.646;26.980;2022-07-21T00:15:10;98987.19;;;22.17;61.90
12799;BME280;19250;42.646;26.980;2022-07-21T00:17:39;98985.75;;;22.14;62.27
12799;BME280;19250;42.646;26.980;2022-07-21T00:20:08;98976.31;;;22.17;61.52
12799;BME280;19250;42.646;26.980;2022-07-21T00:22:37;98993.03;;;21.91;63.91
12799;BME280;19250;42.646;26.980;2022-07-21T00:25:05;98975.34;;;22.00;63.08
12799;BME280;19250;42.646;26.980;2022-07-21T00:27:34;98984.81;;;22.09;61.82
12799;BME280;19250;42.646;26.980;2022-07-21T00:30:02;98980.78;;;22.11;61.09
12799;BME280;19250;42.646;26.980;2022-07-21T00:32:30;98979.31;;;21.86;62.65
12799;BME280;19250;42.646;26.980;2022-07-21T00:34:57;98980.56;;;21.53;66.17
12799;BME280;19250;42.646;26.980;2022-07-21T00:37:24;98980.44;;;21.48;66.78
12799;BME280;19250;42.646;26.980;2022-07-21T00:39:53;98968.13;;;21.64;66.51
12799;BME280;19250;42.646;26.980;2022-07-21T00:42:21;98970.38;;;21.67;66.72
12799;BME280;19250;42.646;26.980;2022-07-21T00:44:51;98963.78;;;21.45;67.85
12799;BME280;19250;42.646;26.980;2022-07-21T00:47:19;98961.84;;;21.52;66.54
12799;BME280;19250;42.646;26.980;2022-07-21T00:49:47;98965.16;;;21.65;65.22
12799;BME280;19250;42.646;26.980;2022-07-21T00:52:15;98966.88;;;21.78;63.78
12799;BME280;19250;42.646;26.980;2022-07-21T00:54:42;98963.44;;;21.71;63.75
12799;BME280;19250;42.646;26.980;2022-07-21T00:57:10;98969.00;;;21.46;64.41
12799;BME280;19250;42.646;26.980;2022-07-21T00:59:38;98945.25;;;21.42;63.97
12799;BME280;19250;42.646;26.980;2022-07-21T01:02:08;98955.25;;;20.93;67.12
12799;BME280;19250;42.646;26.980;2022-07-21T01:04:36;98959.41;;;21.14;67.18
12799;BME280;19250;42.646;26.980;2022-07-21T01:07:05;98958.44;;;21.38;65.75
12799;BME280;19250;42.646;26.980;2022-07-21T01:09:34;98948.47;;;21.50;64.91
12799;BME280;19250;42.646;26.980;2022-07-21T01:12:02;98951.69;;;21.59;64.33
12799;BME280;19250;42.646;26.980;2022-07-21T01:14:30;98934.31;;;21.48;64.10
12799;BME280;19250;42.646;26.980;2022-07-21T01:16:58;98940.50;;;21.55;64.49
12799;BME280;19250;42.646;26.980;2022-07-21T01:19:27;98948.19;;;21.58;64.92
12799;BME280;19250;42.646;26.980;2022-07-21T01:21:56;98949.34;;;21.62;65.27
12799;BME280;19250;42.646;26.980;2022-07-21T01:24:23;98895.66;;;21.23;65.09
12799;BME280;19250;42.646;26.980;2022-07-21T01:26:52;98938.38;;;21.57;65.96
12799;BME280;19250;42.646;26.980;2022-07-21T01:29:20;98941.41;;;21.49;66.54
12799;BME280;19250;42.646;26.980;2022-07-21T01:31:48;98944.25;;;21.54;66.70
12799;BME280;19250;42.646;26.980;2022-07-21T01:34:16;98941.28;;;21.26;67.83
12799;BME280;19250;42.646;26.980;2022-07-21T01:36:45;98933.09;;;20.96;70.35
12799;BME280;19250;42.646;26.980;2022-07-21T01:39:14;98933.75;;;20.55;73.68
12799;BME280;19250;42.646;26.980;2022-07-21T01:41:59;98925.34;;;20.63;73.49
12799;BME280;19250;42.646;26.980;2022-07-21T01:44:26;98918.56;;;20.91;72.22
12799;BME280;19250;42.646;26.980;2022-07-21T01:46:54;98918.72;;;20.59;74.28
12799;BME280;19250;42.646;26.980;2022-07-21T01:49:21;98908.56;;;20.73;73.61
12799;BME280;19250;42.646;26.980;2022-07-21T01:51:50;98912.72;;;20.76;73.95
12799;BME280;19250;42.646;26.980;2022-07-21T01:54:19;98919.63;;;20.90;72.83
12799;BME280;19250;42.646;26.980;2022-07-21T01:56:46;98915.91;;;21.02;72.51
12799;BME280;19250;42.646;26.980;2022-07-21T01:59:13;98910.28;;;21.22;71.09
12799;BME280;19250;42.646;26.980;2022-07-21T02:01:41;98899.09;;;21.30;70.26
12799;BME280;19250;42.646;26.980;2022-07-21T02:04:08;98905.28;;;21.01;70.45
12799;BME280;19250;42.646;26.980;2022-07-21T02:06:35;98905.22;;;20.53;73.41
12799;BME280;19250;42.646;26.980;2022-07-21T02:09:03;98907.28;;;20.76;72.40
12799;BME280;19250;42.646;26.980;2022-07-21T02:11:34;98851.81;;;20.17;74.10
12799;BME280;19250;42.646;26.980;2022-07-21T02:14:01;98909.22;;;20.50;74.85
12799;BME280;19250;42.646;26.980;2022-07-21T02:16:29;98809.06;;;20.26;73.25
12799;BME280;19250;42.646;26.980;2022-07-21T02:18:56;98899.34;;;21.10;70.72
12799;BME280;19250;42.646;26.980;2022-07-21T02:21:24;98896.81;;;21.15;70.92
12799;BME280;19250;42.646;26.980;2022-07-21T02:23:51;98899.66;;;21.21;70.97
12799;BME280;19250;42.646;26.980;2022-07-21T02:26:19;98903.41;;;21.20;70.62
12799;BME280;19250;42.646;26.980;2022-07-21T02:28:48;98894.47;;;21.19;70.88
12799;BME280;19250;42.646;26.980;2022-07-21T02:31:15;98895.22;;;20.90;72.07
12799;BME280;19250;42.646;26.980;2022-07-21T02:33:43;98901.22;;;21.28;70.19
12799;BME280;19250;42.646;26.980;2022-07-21T02:36:10;98898.16;;;21.25;70.28
12799;BME280;19250;42.646;26.980;2022-07-21T02:38:38;98896.59;;;21.29;69.56
12799;BME280;19250;42.646;26.980;2022-07-21T02:41:05;98892.84;;;21.30;69.70
12799;BME280;19250;42.646;26.980;2022-07-21T02:43:32;98782.81;;;20.44;71.17
12799;BME280;19250;42.646;26.980;2022-07-21T02:46:01;98892.34;;;21.21;70.61
12799;BME280;19250;42.646;26.980;2022-07-21T02:48:28;98894.56;;;20.94;72.26
12799;BME280;19250;42.646;26.980;2022-07-21T02:50:56;98895.81;;;20.92;73.11
12799;BME280;19250;42.646;26.980;2022-07-21T02:53:23;98897.16;;;21.01;72.86
12799;BME280;19250;42.646;26.980;2022-07-21T02:55:51;98893.09;;;21.10;72.75
12799;BME280;19250;42.646;26.980;2022-07-21T02:58:20;98888.47;;;21.29;71.67
12799;BME280;19250;42.646;26.980;2022-07-21T03:00:50;98891.13;;;20.99;73.44
12799;BME280;19250;42.646;26.980;2022-07-21T03:03:20;98887.69;;;20.92;74.09
12799;BME280;19250;42.646;26.980;2022-07-21T03:05:47;98899.97;;;20.94;73.91
12799;BME280;19250;42.646;26.980;2022-07-21T03:08:16;98837.56;;;20.46;75.19
12799;BME280;19250;42.646;26.980;2022-07-21T03:10:43;98885.28;;;20.84;75.19
12799;BME280;19250;42.646;26.980;2022-07-21T03:13:11;98898.69;;;20.97;74.37
12799;BME280;19250;42.646;26.980;2022-07-21T03:15:38;98848.03;;;20.79;73.46
12799;BME280;19250;42.646;26.980;2022-07-21T03:18:06;98881.28;;;20.86;74.67
12799;BME280;19250;42.646;26.980;2022-07-21T03:20:38;98881.00;;;21.12;73.42
12799;BME280;19250;42.646;26.980;2022-07-21T03:23:06;98879.66;;;21.33;72.54
12799;BME280;19250;42.646;26.980;2022-07-21T03:25:33;98839.16;;;21.02;72.16
12799;BME280;19250;42.646;26.980;2022-07-21T03:28:01;98879.72;;;21.56;70.88
12799;BME280;19250;42.646;26.980;2022-07-21T03:30:28;98882.31;;;21.51;71.27
12799;BME280;19250;42.646;26.980;2022-07-21T03:32:57;98888.06;;;21.43;71.80
12799;BME280;19250;42.646;26.980;2022-07-21T03:35:24;98884.94;;;21.69;70.78
12799;BME280;19250;42.646;26.980;2022-07-21T03:37:54;98875.38;;;21.67;70.97
12799;BME280;19250;42.646;26.980;2022-07-21T03:40:24;98873.72;;;21.66;70.92
12799;BME280;19250;42.646;26.980;2022-07-21T03:42:53;98882.50;;;21.80;70.60
12799;BME280;19250;42.646;26.980;2022-07-21T03:45:21;98873.88;;;21.71;71.10
12799;BME280;19250;42.646;26.980;2022-07-21T03:47:49;98879.25;;;21.89;70.38
12799;BME280;19250;42.646;26.980;2022-07-21T03:50:16;98871.09;;;22.01;69.64
12799;BME280;19250;42.646;26.980;2022-07-21T03:52:44;98865.78;;;22.17;68.68
12799;BME280;19250;42.646;26.980;2022-07-21T03:55:13;98866.75;;;22.23;69.20
12799;BME280;19250;42.646;26.980;2022-07-21T03:57:45;98861.88;;;22.25;68.84
12799;BME280;19250;42.646;26.980;2022-07-21T04:00:16;98870.28;;;22.12;69.36
12799;BME280;19250;42.646;26.980;2022-07-21T04:02:44;98863.88;;;22.18;69.50
12799;BME280;19250;42.646;26.980;2022-07-21T04:05:12;98866.97;;;22.33;68.72
12799;BME280;19250;42.646;26.980;2022-07-21T04:07:41;98871.19;;;22.52;67.32
12799;BME280;19250;42.646;26.980;2022-07-21T04:10:11;98878.84;;;22.78;64.91
12799;BME280;19250;42.646;26.980;2022-07-21T04:12:40;98878.09;;;22.95;63.95
12799;BME280;19250;42.646;26.980;2022-07-21T04:15:08;98880.34;;;22.98;64.72
12799;BME280;19250;42.646;26.980;2022-07-21T04:17:37;98879.75;;;23.24;61.80
12799;BME280;19250;42.646;26.980;2022-07-21T04:20:06;98875.13;;;23.36;61.19
12799;BME280;19250;42.646;26.980;2022-07-21T04:22:34;98865.03;;;23.48;60.83
12799;BME280;19250;42.646;26.980;2022-07-21T04:25:02;98876.50;;;23.50;61.21
12799;BME280;19250;42.646;26.980;2022-07-21T04:27:30;98872.09;;;23.49;60.68
12799;BME280;19250;42.646;26.980;2022-07-21T04:29:59;98874.59;;;23.67;56.90
12799;BME280;19250;42.646;26.980;2022-07-21T04:32:26;98866.69;;;23.82;57.22
12799;BME280;19250;42.646;26.980;2022-07-21T04:34:53;98858.88;;;23.69;55.91
12799;BME280;19250;42.646;26.980;2022-07-21T04:37:21;98863.22;;;23.54;57.26
12799;BME280;19250;42.646;26.980;2022-07-21T04:39:49;98867.59;;;23.26;57.51
12799;BME280;19250;42.646;26.980;2022-07-21T04:42:16;98867.06;;;23.41;56.26
12799;BME280;19250;42.646;26.980;2022-07-21T04:44:43;98873.97;;;23.60;55.31
12799;BME280;19250;42.646;26.980;2022-07-21T04:47:12;98865.94;;;23.70;55.25
12799;BME280;19250;42.646;26.980;2022-07-21T04:49:39;98854.81;;;23.89;54.34
12799;BME280;19250;42.646;26.980;2022-07-21T04:52:07;98877.59;;;23.99;54.09
12799;BME280;19250;42.646;26.980;2022-07-21T04:54:34;98886.00;;;23.98;54.46
12799;BME280;19250;42.646;26.980;2022-07-21T04:57:02;98884.53;;;24.07;54.89
12799;BME280;19250;42.646;26.980;2022-07-21T04:59:32;98875.44;;;23.51;54.83
12799;BME280;19250;42.646;26.980;2022-07-21T05:02:00;98887.50;;;23.72;57.00
12799;BME280;19250;42.646;26.980;2022-07-21T05:04:29;98885.13;;;24.09;53.89
12799;BME280;19250;42.646;26.980;2022-07-21T05:06:58;98891.47;;;23.98;54.06
12799;BME280;19250;42.646;26.980;2022-07-21T05:09:25;98890.47;;;24.04;54.34
12799;BME280;19250;42.646;26.980;2022-07-21T05:11:52;98891.22;;;24.49;51.33
12799;BME280;19250;42.646;26.980;2022-07-21T05:14:20;98897.41;;;24.28;51.77
12799;BME280;19250;42.646;26.980;2022-07-21T05:16:47;98893.63;;;24.46;51.89
12799;BME280;19250;42.646;26.980;2022-07-21T05:19:14;98882.06;;;24.99;49.14
12799;BME280;19250;42.646;26.980;2022-07-21T05:21:43;98891.69;;;25.28;50.25
12799;BME280;19250;42.646;26.980;2022-07-21T05:24:11;98894.31;;;25.66;46.11
12799;BME280;19250;42.646;26.980;2022-07-21T05:26:38;98830.84;;;25.86;44.09
12799;BME280;19250;42.646;26.980;2022-07-21T05:29:05;98896.47;;;26.23;42.45
12799;BME280;19250;42.646;26.980;2022-07-21T05:31:33;98894.16;;;26.46;42.45
12799;BME280;19250;42.646;26.980;2022-07-21T05:34:00;98875.16;;;26.72;42.13
12799;BME280;19250;42.646;26.980;2022-07-21T05:36:27;98898.06;;;27.13;41.43
12799;BME280;19250;42.646;26.980;2022-07-21T05:38:56;98889.06;;;27.17;44.07
12799;BME280;19250;42.646;26.980;2022-07-21T05:41:23;98884.88;;;26.94;40.65
12799;BME280;19250;42.646;26.980;2022-07-21T05:43:51;98884.47;;;27.38;41.44
12799;BME280;19250;42.646;26.980;2022-07-21T05:46:18;98888.09;;;27.58;39.74
12799;BME280;19250;42.646;26.980;2022-07-21T05:48:45;98892.78;;;27.58;39.14
12799;BME280;19250;42.646;26.980;2022-07-21T05:51:12;98885.94;;;27.66;38.99
12799;BME280;19250;42.646;26.980;2022-07-21T05:53:40;98888.44;;;28.18;38.97
12799;BME280;19250;42.646;26.980;2022-07-21T05:56:09;98888.97;;;27.89;38.49
12799;BME280;19250;42.646;26.980;2022-07-21T05:58:36;98889.25;;;27.88;36.50
12799;BME280;19250;42.646;26.980;2022-07-21T06:01:04;98895.50;;;27.68;37.94
12799;BME280;19250;42.646;26.980;2022-07-21T06:03:43;98894.69;;;28.53;36.72
12799;BME280;19250;42.646;26.980;2022-07-21T06:06:12;98889.75;;;28.66;36.30
12799;BME280;19250;42.646;26.980;2022-07-21T06:08:41;98883.81;;;29.12;35.46
12799;BME280;19250;42.646;26.980;2022-07-21T06:11:11;98885.38;;;29.34;35.64
12799;BME280;19250;42.646;26.980;2022-07-21T06:13:39;98885.69;;;29.27;35.14
12799;BME280;19250;42.646;26.980;2022-07-21T06:16:07;98886.75;;;29.41;35.43
12799;BME280;19250;42.646;26.980;2022-07-21T06:18:34;98888.00;;;29.59;35.51
12799;BME280;19250;42.646;26.980;2022-07-21T06:21:02;98892.31;;;29.70;35.47
12799;BME280;19250;42.646;26.980;2022-07-21T06:23:30;98891.50;;;30.08;34.95
12799;BME280;19250;42.646;26.980;2022-07-21T06:25:57;98890.38;;;30.09;34.76
12799;BME280;19250;42.646;26.980;2022-07-21T06:28:26;98900.91;;;30.31;34.74
12799;BME280;19250;42.646;26.980;2022-07-21T06:30:53;98886.88;;;30.33;34.57
12799;BME280;19250;42.646;26.980;2022-07-21T06:33:21;98876.41;;;30.35;34.76
12799;BME280;19250;42.646;26.980;2022-07-21T06:35:48;98903.63;;;30.65;33.46
12799;BME280;19250;42.646;26.980;2022-07-21T06:38:16;98898.00;;;31.04;33.96
12799;BME280;19250;42.646;26.980;2022-07-21T06:40:43;98894.50;;;31.17;33.34
12799;BME280;19250;42.646;26.980;2022-07-21T06:43:10;98900.69;;;31.09;33.82
12799;BME280;19250;42.646;26.980;2022-07-21T06:45:39;98898.09;;;31.17;35.17
12799;BME280;19250;42.646;26.980;2022-07-21T06:48:07;98889.78;;;31.41;33.41
12799;BME280;19250;42.646;26.980;2022-07-21T06:50:36;98898.94;;;31.37;34.45
12799;BME280;19250;42.646;26.980;2022-07-21T06:53:04;98896.38;;;31.64;33.64
12799;BME280;19250;42.646;26.980;2022-07-21T06:55:32;98893.84;;;31.86;34.29
12799;BME280;19250;42.646;26.980;2022-07-21T06:58:08;98891.47;;;31.61;32.63
12799;BME280;19250;42.646;26.980;2022-07-21T07:00:36;98890.22;;;31.29;33.33
12799;BME280;19250;42.646;26.980;2022-07-21T07:03:05;98893.31;;;31.65;32.83
12799;BME280;19250;42.646;26.980;2022-07-21T07:05:32;98891.09;;;31.49;33.11
12799;BME280;19250;42.646;26.980;2022-07-21T07:08:00;98887.25;;;31.45;33.10
12799;BME280;19250;42.646;26.980;2022-07-21T07:10:27;98893.03;;;31.86;31.83
12799;BME280;19250;42.646;26.980;2022-07-21T07:12:55;98890.03;;;31.82;31.23
12799;BME280;19250;42.646;26.980;2022-07-21T07:15:23;98893.03;;;31.67;32.24
12799;BME280;19250;42.646;26.980;2022-07-21T07:17:51;98878.28;;;31.58;32.19
12799;BME280;19250;42.646;26.980;2022-07-21T07:20:20;98899.50;;;31.76;31.77
12799;BME280;19250;42.646;26.980;2022-07-21T07:22:48;98889.56;;;31.94;31.64
12799;BME280;19250;42.646;26.980;2022-07-21T07:25:15;98897.44;;;31.68;31.79
12799;BME280;19250;42.646;26.980;2022-07-21T07:27:43;98893.75;;;31.72;31.26
12799;BME280;19250;42.646;26.980;2022-07-21T07:30:12;98895.41;;;31.92;31.37
12799;BME280;19250;42.646;26.980;2022-07-21T07:32:39;98863.16;;;31.74;32.26
12799;BME280;19250;42.646;26.980;2022-07-21T07:35:07;98890.31;;;31.80;31.87
12799;BME280;19250;42.646;26.980;2022-07-21T07:37:37;98880.59;;;32.02;31.17
12799;BME280;19250;42.646;26.980;2022-07-21T07:40:07;98880.72;;;32.29;30.91
12799;BME280;19250;42.646;26.980;2022-07-21T07:42:35;98884.72;;;32.37;31.01
12799;BME280;19250;42.646;26.980;2022-07-21T07:45:03;98825.22;;;32.44;30.79
12799;BME280;19250;42.646;26.980;2022-07-21T07:47:31;98886.44;;;32.92;30.36
12799;BME280;19250;42.646;26.980;2022-07-21T07:49:59;98900.06;;;32.75;30.86
12799;BME280;19250;42.646;26.980;2022-07-21T07:52:26;98885.09;;;33.03;30.55
12799;BME280;19250;42.646;26.980;2022-07-21T07:54:55;98891.75;;;32.88;29.89
12799;BME280;19250;42.646;26.980;2022-07-21T07:57:22;98907.59;;;32.56;29.89
12799;BME280;19250;42.646;26.980;2022-07-21T07:59:50;98897.38;;;32.56;30.56
12799;BME280;19250;42.646;26.980;2022-07-21T08:02:17;98899.63;;;32.68;30.63
12799;BME280;19250;42.646;26.980;2022-07-21T08:04:44;98901.41;;;32.45;31.24
12799;BME280;19250;42.646;26.980;2022-07-21T08:07:12;98902.94;;;32.83;31.08
12799;BME280;19250;42.646;26.980;2022-07-21T08:09:39;98885.94;;;32.90;31.48
12799;BME280;19250;42.646;26.980;2022-07-21T08:12:08;98891.41;;;33.09;30.49
12799;BME280;19250;42.646;26.980;2022-07-21T08:14:36;98877.34;;;32.92;30.78
12799;BME280;19250;42.646;26.980;2022-07-21T08:17:04;98882.06;;;33.18;30.21
12799;BME280;19250;42.646;26.980;2022-07-21T08:19:31;98892.16;;;33.86;29.78
12799;BME280;19250;42.646;26.980;2022-07-21T08:21:59;98894.03;;;33.77;30.00
12799;BME280;19250;42.646;26.980;2022-07-21T08:24:27;98883.75;;;34.13;29.50
12799;BME280;19250;42.646;26.980;2022-07-21T08:26:54;98886.75;;;34.03;29.09
12799;BME280;19250;42.646;26.980;2022-07-21T08:29:23;98838.38;;;33.42;29.54
12799;BME280;19250;42.646;26.980;2022-07-21T08:31:50;98897.94;;;33.76;30.11
12799;BME280;19250;42.646;26.980;2022-07-21T08:34:17;98818.75;;;33.30;29.83
12799;BME280;19250;42.646;26.980;2022-07-21T08:36:45;98888.88;;;33.84;29.97
12799;BME280;19250;42.646;26.980;2022-07-21T08:39:12;98886.00;;;33.89;30.15
12799;BME280;19250;42.646;26.980;2022-07-21T08:41:40;98883.47;;;34.01;30.19
12799;BME280;19250;42.646;26.980;2022-07-21T08:44:07;98864.94;;;34.24;29.27
12799;BME280;19250;42.646;26.980;2022-07-21T08:46:39;98886.56;;;34.44;28.95
12799;BME280;19250;42.646;26.980;2022-07-21T08:49:09;98881.38;;;34.51;28.60
12799;BME280;19250;42.646;26.980;2022-07-21T08:51:36;98883.28;;;34.42;28.86
12799;BME280;19250;42.646;26.980;2022-07-21T08:54:04;98890.53;;;34.29;28.22
12799;BME280;19250;42.646;26.980;2022-07-21T08:56:31;98893.72;;;34.01;29.00
12799;BME280;19250;42.646;26.980;2022-07-21T08:58:59;98883.94;;;34.17;28.58
12799;BME280;19250;42.646;26.980;2022-07-21T09:01:26;98886.22;;;34.68;28.37
12799;BME280;19250;42.646;26.980;2022-07-21T09:03:55;98885.28;;;34.81;28.10
12799;BME280;19250;42.646;26.980;2022-07-21T09:06:22;98887.72;;;35.13;27.24
12799;BME280;19250;42.646;26.980;2022-07-21T09:08:51;98889.88;;;34.55;28.50
12799;BME280;19250;42.646;26.980;2022-07-21T09:11:21;98878.91;;;34.80;27.90
12799;BME280;19250;42.646;26.980;2022-07-21T09:14:04;98880.47;;;34.95;28.13
12799;BME280;19250;42.646;26.980;2022-07-21T09:16:34;98841.22;;;35.10;27.14
12799;BME280;19250;42.646;26.980;2022-07-21T09:19:04;98854.13;;;35.23;27.15
12799;BME280;19250;42.646;26.980;2022-07-21T09:21:32;98872.03;;;34.69;28.36
12799;BME280;19250;42.646;26.980;2022-07-21T09:24:18;98876.50;;;34.79;28.61
12799;BME280;19250;42.646;26.980;2022-07-21T09:27:01;98868.47;;;34.77;28.58
12799;BME280;19250;42.646;26.980;2022-07-21T09:29:41;98877.13;;;35.15;28.10
12799;BME280;19250;42.646;26.980;2022-07-21T09:32:21;98875.75;;;35.78;26.95
12799;BME280;19250;42.646;26.980;2022-07-21T09:34:51;98879.66;;;35.60;27.60
12799;BME280;19250;42.646;26.980;2022-07-21T09:37:21;98867.25;;;35.83;27.09
12799;BME280;19250;42.646;26.980;2022-07-21T09:39:51;98868.50;;;35.34;27.33
12799;BME280;19250;42.646;26.980;2022-07-21T09:42:22;98873.28;;;36.02;26.87
12799;BME280;19250;42.646;26.980;2022-07-21T09:44:51;98876.13;;;36.48;26.27
12799;BME280;19250;42.646;26.980;2022-07-21T09:47:21;98870.03;;;37.39;24.83
12799;BME280;19250;42.646;26.980;2022-07-21T09:49:51;98876.91;;;37.13;25.27
12799;BME280;19250;42.646;26.980;2022-07-21T09:52:26;98869.69;;;37.91;23.96
12799;BME280;19250;42.646;26.980;2022-07-21T09:54:56;98853.41;;;37.01;25.20
12799;BME280;19250;42.646;26.980;2022-07-21T09:57:24;98862.59;;;36.55;25.25
12799;BME280;19250;42.646;26.980;2022-07-21T09:59:51;98876.22;;;37.16;25.60
12799;BME280;19250;42.646;26.980;2022-07-21T10:02:21;98881.28;;;37.51;25.02
12799;BME280;19250;42.646;26.980;2022-07-21T10:04:56;98867.22;;;38.10;24.20
12799;BME280;19250;42.646;26.980;2022-07-21T10:07:23;98862.06;;;37.79;24.27
12799;BME280;19250;42.646;26.980;2022-07-21T10:09:51;98882.41;;;39.51;23.07
12799;BME280;19250;42.646;26.980;2022-07-21T10:12:19;98878.34;;;40.16;21.82
12799;BME280;19250;42.646;26.980;2022-07-21T10:14:46;98841.94;;;39.45;22.80
12799;BME280;19250;42.646;26.980;2022-07-21T10:17:14;98869.91;;;38.76;23.44
12799;BME280;19250;42.646;26.980;2022-07-21T10:19:49;98869.75;;;39.05;22.90
12799;BME280;19250;42.646;26.980;2022-07-21T10:22:28;98867.59;;;40.30;21.69
12799;BME280;19250;42.646;26.980;2022-07-21T10:24:58;98873.78;;;39.96;21.93
12799;BME280;19250;42.646;26.980;2022-07-21T10:27:26;98860.06;;;41.09;20.96
12799;BME280;19250;42.646;26.980;2022-07-21T10:29:56;98869.16;;;39.88;22.09
12799;BME280;19250;42.646;26.980;2022-07-21T10:32:26;98841.63;;;37.25;24.63
12799;BME280;19250;42.646;26.980;2022-07-21T10:34:54;98854.97;;;38.02;23.85
12799;BME280;19250;42.646;26.980;2022-07-21T10:37:45;98857.78;;;38.47;23.59
12799;BME280;19250;42.646;26.980;2022-07-21T10:40:35;98853.88;;;38.60;23.25
12799;BME280;19250;42.646;26.980;2022-07-21T10:46:34;98837.75;;;38.21;24.13
12799;BME280;19250;42.646;26.980;2022-07-21T10:49:06;98808.06;;;39.46;22.78
12799;BME280;19250;42.646;26.980;2022-07-21T10:51:35;98832.09;;;40.62;21.57
12799;BME280;19250;42.646;26.980;2022-07-21T10:54:24;98848.47;;;40.04;22.48
12799;BME280;19250;42.646;26.980;2022-07-21T10:57:26;98849.34;;;38.44;23.64
12799;BME280;19250;42.646;26.980;2022-07-21T11:00:17;98838.31;;;40.87;20.56
12799;BME280;19250;42.646;26.980;2022-07-21T11:02:47;98837.47;;;41.17;21.06
12799;BME280;19250;42.646;26.980;2022-07-21T11:05:15;98839.00;;;40.37;21.51
12799;BME280;19250;42.646;26.980;2022-07-21T11:08:11;98842.53;;;40.34;21.54
12799;BME280;19250;42.646;26.980;2022-07-21T11:10:42;98832.50;;;41.11;20.83
12799;BME280;19250;42.646;26.980;2022-07-21T11:13:09;98839.66;;;40.77;20.76
12799;BME280;19250;42.646;26.980;2022-07-21T11:15:48;98838.47;;;40.47;21.63
12799;BME280;19250;42.646;26.980;2022-07-21T11:18:19;98837.44;;;39.96;21.98
12799;BME280;19250;42.646;26.980;2022-07-21T11:21:06;98829.34;;;38.66;23.33
12799;BME280;19250;42.646;26.980;2022-07-21T11:23:38;98838.13;;;39.01;22.82
12799;BME280;19250;42.646;26.980;2022-07-21T11:26:08;98833.56;;;40.00;22.12
12799;BME280;19250;42.646;26.980;2022-07-21T11:28:36;98836.44;;;40.16;21.61
12799;BME280;19250;42.646;26.980;2022-07-21T11:31:08;98836.53;;;39.92;22.00
12799;BME280;19250;42.646;26.980;2022-07-21T11:33:37;98842.00;;;39.88;21.99
12799;BME280;19250;42.646;26.980;2022-07-21T11:36:05;98825.44;;;39.03;22.54
12799;BME280;19250;42.646;26.980;2022-07-21T11:38:33;98832.16;;;39.02;22.92
12799;BME280;19250;42.646;26.980;2022-07-21T11:41:16;98819.16;;;38.70;22.83
12799;BME280;19250;42.646;26.980;2022-07-21T11:43:45;98832.78;;;40.00;21.23
12799;BME280;19250;42.646;26.980;2022-07-21T11:46:12;98768.72;;;42.16;20.37
12799;BME280;19250;42.646;26.980;2022-07-21T11:48:40;98828.38;;;42.36;19.70
12799;BME280;19250;42.646;26.980;2022-07-21T11:51:08;98833.25;;;43.33;19.33
12799;BME280;19250;42.646;26.980;2022-07-21T11:53:35;98835.16;;;43.81;18.38
12799;BME280;19250;42.646;26.980;2022-07-21T11:56:15;98821.09;;;43.25;19.01
12799;BME280;19250;42.646;26.980;2022-07-21T11:58:42;98835.47;;;42.71;19.08
12799;BME280;19250;42.646;26.980;2022-07-21T12:01:10;98826.22;;;42.48;19.08
12799;BME280;19250;42.646;26.980;2022-07-21T12:03:47;98830.94;;;42.21;19.31
12799;BME280;19250;42.646;26.980;2022-07-21T12:06:15;98809.53;;;39.68;22.98
12799;BME280;19250;42.646;26.980;2022-07-21T12:08:44;98825.41;;;36.98;26.20
12799;BME280;19250;42.646;26.980;2022-07-21T12:11:11;98820.19;;;35.09;28.85
12799;BME280;19250;42.646;26.980;2022-07-21T12:14:07;98806.00;;;34.32;30.57
12799;BME280;19250;42.646;26.980;2022-07-21T12:16:47;98798.59;;;33.66;31.80
12799;BME280;19250;42.646;26.980;2022-07-21T12:19:16;98807.69;;;33.30;32.71
12799;BME280;19250;42.646;26.980;2022-07-21T12:21:49;98802.13;;;33.08;34.38
12799;BME280;19250;42.646;26.980;2022-07-21T12:24:17;98807.50;;;33.27;33.49
12799;BME280;19250;42.646;26.980;2022-07-21T12:26:44;98804.34;;;33.20;33.93
12799;BME280;19250;42.646;26.980;2022-07-21T12:29:26;98819.72;;;32.44;35.27
12799;BME280;19250;42.646;26.980;2022-07-21T12:31:54;98820.41;;;32.22;36.06
12799;BME280;19250;42.646;26.980;2022-07-21T12:34:21;98818.31;;;32.14;36.13
12799;BME280;19250;42.646;26.980;2022-07-21T12:36:50;98813.56;;;33.15;34.77
12799;BME280;19250;42.646;26.980;2022-07-21T12:39:22;98821.34;;;33.85;33.77
12799;BME280;19250;42.646;26.980;2022-07-21T12:42:08;98803.69;;;35.04;31.10
12799;BME280;19250;42.646;26.980;2022-07-21T12:44:38;98812.78;;;35.05;31.64
12799;BME280;19250;42.646;26.980;2022-07-21T12:47:16;98817.00;;;34.45;32.05
12799;BME280;19250;42.646;26.980;2022-07-21T12:49:54;98830.53;;;33.58;33.18
12799;BME280;19250;42.646;26.980;2022-07-21T12:52:23;98816.97;;;32.58;35.13
12799;BME280;19250;42.646;26.980;2022-07-21T12:54:51;98828.19;;;32.34;36.15
12799;BME280;19250;42.646;26.980;2022-07-21T12:57:18;98809.78;;;31.97;36.99
12799;BME280;19250;42.646;26.980;2022-07-21T12:59:47;98799.25;;;31.67;37.80
12799;BME280;19250;42.646;26.980;2022-07-21T13:02:14;98814.44;;;32.75;35.63
12799;BME280;19250;42.646;26.980;2022-07-21T13:04:42;98806.50;;;32.55;35.77